METAR Data
IDs: Format: Raw Decoded Include TAF

Data at: 2259 UTC 10 May 2021

KLHX 102253Z AUTO 09020G29KT 10SM OVC021 09/04 A3000 RMK AO2 PK WND 09029/2251 SLP142 T00940044
KLHX 102153Z AUTO 09017G28KT 10SM OVC021 11/04 A3001 RMK AO2 PK WND 11029/2143 SLP141 T01060044
KLHX 102053Z AUTO 11020G30KT 10SM OVC016 10/04 A3001 RMK AO2 PK WND 11031/2002 SLP145 T01000044 58011
KLHX 101953Z AUTO 11022KT 10SM OVC016 10/04 A3002 RMK AO2 PK WND 12029/1936 SLP146 T01000044
KLHX 101853Z AUTO 11019KT 10SM OVC015 08/04 A3005 RMK AO2 PK WND 11029/1817 SLP159 T00830039
KLHX 101851Z AUTO 11019G28KT 10SM OVC015 08/04 A3005 RMK AO2 PK WND 11029/1817
KLHX 101804Z AUTO 12019KT 10SM OVC014 08/03 A3007 RMK AO2 PK WND 12026/1802 T00830033
KLHX 101753Z AUTO 12020G26KT 10SM OVC015 08/03 A3007 RMK AO2 PK WND 12027/1733 SLP166 T00780033 10083 20061 58014
KLHX 101653Z AUTO 11018KT 10SM OVC015 08/03 A3009 RMK AO2 SLP173 T00780028
KLHX 101553Z AUTO 13017KT 10SM BKN016 OVC021 08/03 A3010 RMK AO2 SLP178 T00780028
KLHX 101453Z AUTO 12018KT 10SM OVC014 07/03 A3012 RMK AO2 PK WND 12026/1409 SLP184 T00670028 55005
KLHX 101431Z AUTO 12018KT 10SM OVC013 07/03 A3012 RMK AO2 PK WND 12026/1409 T00670028
KLHX 101353Z AUTO 13018KT 10SM OVC021 07/03 A3011 RMK AO2 SLP178 T00670028
KLHX 101253Z AUTO 13013KT 10SM BKN023 OVC032 07/03 A3013 RMK AO2 SLP183 T00670033 $
KLHX 101217Z AUTO 13013KT 10SM OVC031 07/03 A3013 RMK AO2 T00670033 $
KLHX 101153Z AUTO 12013KT 10SM SCT019 OVC027 07/03 A3013 RMK AO2 SLP185 60000 T00670033 10083 20067 53003 $
KLHX 101110Z AUTO 12012KT 10SM BKN020 OVC029 07/03 A3013 RMK AO2 T00670033 $
KLHX 101053Z AUTO 12013KT 10SM BKN030 OVC035 07/03 A3012 RMK AO2 SLP180 T00720033 $
KLHX 101010Z AUTO 13011KT 10SM OVC030 08/04 A3012 RMK AO2 T00780044 $
KLHX 100953Z AUTO 12009KT 10SM OVC028 08/05 A3012 RMK AO2 SLP179 T00780050 $
KLHX 100920Z AUTO 14009KT 10SM BKN028 OVC033 08/04 A3012 RMK AO2 T00780039 $
KLHX 100853Z AUTO 13008KT 10SM SCT024 OVC037 07/04 A3012 RMK AO2 RAB0754E32 SLP179 P0000 60000 T00720039 55000 $
KLHX 100840Z AUTO 12009KT 10SM SCT029 OVC039 07/04 A3012 RMK AO2 RAB0754E32 P0000 T00720039 $
KLHX 100811Z AUTO 12008KT 10SM -RA BKN027 OVC037 08/03 A3012 RMK AO2 RAB0754 P0000 T00780028 $
KLHX 100753Z AUTO 10011KT 10SM OVC039 08/02 A3011 RMK AO2 SLP177 T00830017 $
KLHX 100653Z AUTO 08012KT 10SM OVC043 08/02 A3013 RMK AO2 SLP183 T00830017 401330072 $
KLHX 100553Z AUTO 08011KT 10SM OVC046 08/01 A3012 RMK AO2 SLP181 T00830011 10128 20083 50015 $
KLHX 100453Z AUTO 06014KT 10SM OVC050 08/02 A3014 RMK AO2 SLP186 T00830017 $
KLHX 100353Z AUTO 02013KT 10SM OVC060 08/02 A3012 RMK AO2 SLP181 T00830017 $
KLHX 100253Z AUTO 05013KT 10SM BKN060 BKN075 09/01 A3007 RMK AO2 SLP164 T00890011 53007 $
KLHX 100153Z AUTO 05009KT 10SM OVC055 12/00 A3006 RMK AO2 SLP159 T01170000 $
KLHX 100053Z AUTO 05012KT 10SM BKN050 OVC075 12/M01 A3005 RMK AO2 SLP154 T01221011 $
KLHX 092353Z AUTO 04010KT 10SM OVC055 12/M01 A3005 RMK AO2 SLP154 T01221011 10133 20100 55003 $
KLHX 092253Z AUTO 02011KT 10SM OVC055 12/M01 A3005 RMK AO2 SLP152 T01221011 $
KLHX 092153Z AUTO 03011KT 10SM OVC055 12/M01 A3006 RMK AO2 SLP154 T01221006 $
KLHX 092053Z AUTO 02006KT 10SM OVC070 13/M01 A3006 RMK AO2 SLP152 T01281006 58017 $
KLHX 091953Z AUTO 04009KT 10SM OVC055 12/00 A3007 RMK AO2 SLP159 T01170000 $
KLHX 091853Z AUTO 35003KT 10SM OVC055 10/00 A3010 RMK AO2 SLP171 T01000000 $
KLHX 091753Z AUTO 06005KT 10SM BKN055 OVC070 11/01 A3012 RMK AO2 SLP175 T01060006 10111 20072 58002 $
KLHX 091653Z AUTO 09005KT 10SM OVC055 10/M01 A3013 RMK AO2 SLP179 T01001006 $
KLHX 091553Z AUTO 05003KT 10SM FEW028 BKN055 OVC080 11/01 A3012 RMK AO2 SLP175 T01060011 $
KLHX 091453Z AUTO VRB04KT 10SM SCT055 SCT070 BKN080 09/01 A3012 RMK AO2 SLP176 T00940011 $
KLHX 091353Z AUTO 05007KT 10SM OVC050 08/01 A3012 RMK AO2 SLP176 T00780011
KLHX 091253Z AUTO 05015KT 10SM OVC048 08/01 A3009 RMK AO2 SLP166 T00780011
KLHX 091153Z AUTO 07011KT 10SM OVC050 08/02 A3007 RMK AO2 SLP145 60001 70001 T00780022 10117 20078 51023